sensor_id;sensor_type;location;lat;lon;timestamp;P1;durP1;ratioP1;P2;durP2;ratioP2
39190;SDS011;24916;51.676;6.614;2024-01-16T00:00:22;14.10;;;8.07;;
39190;SDS011;24916;51.676;6.614;2024-01-16T00:02:47;13.60;;;9.43;;
39190;SDS011;24916;51.676;6.614;2024-01-16T00:05:12;13.68;;;8.73;;
39190;SDS011;24916;51.676;6.614;2024-01-16T00:07:38;14.13;;;8.60;;
39190;SDS011;24916;51.676;6.614;2024-01-16T00:10:04;12.65;;;8.55;;
39190;SDS011;24916;51.676;6.614;2024-01-16T00:12:29;12.85;;;8.65;;
39190;SDS011;24916;51.676;6.614;2024-01-16T00:14:54;14.32;;;8.60;;
39190;SDS011;24916;51.676;6.614;2024-01-16T00:17:19;12.02;;;7.93;;
39190;SDS011;24916;51.676;6.614;2024-01-16T00:19:45;12.18;;;7.72;;
39190;SDS011;24916;51.676;6.614;2024-01-16T00:22:10;12.95;;;7.90;;
39190;SDS011;24916;51.676;6.614;2024-01-16T00:24:35;11.27;;;7.43;;
39190;SDS011;24916;51.676;6.614;2024-01-16T00:27:00;11.18;;;7.57;;
39190;SDS011;24916;51.676;6.614;2024-01-16T00:29:25;11.48;;;6.82;;
39190;SDS011;24916;51.676;6.614;2024-01-16T00:31:51;12.20;;;7.57;;
39190;SDS011;24916;51.676;6.614;2024-01-16T00:34:16;9.93;;;6.80;;
39190;SDS011;24916;51.676;6.614;2024-01-16T00:36:41;9.60;;;6.90;;
39190;SDS011;24916;51.676;6.614;2024-01-16T00:39:07;10.60;;;6.90;;
39190;SDS011;24916;51.676;6.614;2024-01-16T00:41:33;11.13;;;7.28;;
39190;SDS011;24916;51.676;6.614;2024-01-16T00:43:58;11.55;;;6.20;;
39190;SDS011;24916;51.676;6.614;2024-01-16T00:46:23;9.77;;;6.90;;
39190;SDS011;24916;51.676;6.614;2024-01-16T00:48:48;9.98;;;6.65;;
39190;SDS011;24916;51.676;6.614;2024-01-16T00:51:14;10.93;;;7.10;;
39190;SDS011;24916;51.676;6.614;2024-01-16T00:53:39;10.23;;;6.05;;
39190;SDS011;24916;51.676;6.614;2024-01-16T00:56:05;9.98;;;6.45;;
39190;SDS011;24916;51.676;6.614;2024-01-16T00:58:30;9.75;;;6.00;;
39190;SDS011;24916;51.676;6.614;2024-01-16T01:00:55;9.15;;;6.40;;
39190;SDS011;24916;51.676;6.614;2024-01-16T01:03:21;9.05;;;5.85;;
39190;SDS011;24916;51.676;6.614;2024-01-16T01:05:46;8.32;;;6.30;;
39190;SDS011;24916;51.676;6.614;2024-01-16T01:08:11;9.45;;;6.30;;
39190;SDS011;24916;51.676;6.614;2024-01-16T01:10:36;7.93;;;5.35;;
39190;SDS011;24916;51.676;6.614;2024-01-16T01:13:01;8.35;;;5.53;;
39190;SDS011;24916;51.676;6.614;2024-01-16T01:15:27;9.27;;;5.78;;
39190;SDS011;24916;51.676;6.614;2024-01-16T01:17:52;8.55;;;5.80;;
39190;SDS011;24916;51.676;6.614;2024-01-16T01:20:19;7.82;;;5.20;;
39190;SDS011;24916;51.676;6.614;2024-01-16T01:22:44;7.90;;;5.13;;
39190;SDS011;24916;51.676;6.614;2024-01-16T01:25:10;7.63;;;5.22;;
39190;SDS011;24916;51.676;6.614;2024-01-16T01:27:36;8.13;;;5.22;;
39190;SDS011;24916;51.676;6.614;2024-01-16T01:30:01;6.90;;;4.97;;
39190;SDS011;24916;51.676;6.614;2024-01-16T01:32:27;7.72;;;5.18;;
39190;SDS011;24916;51.676;6.614;2024-01-16T01:34:54;8.63;;;5.22;;
39190;SDS011;24916;51.676;6.614;2024-01-16T01:37:19;6.75;;;4.90;;
39190;SDS011;24916;51.676;6.614;2024-01-16T01:39:45;7.93;;;5.28;;
39190;SDS011;24916;51.676;6.614;2024-01-16T01:42:10;7.07;;;4.88;;
39190;SDS011;24916;51.676;6.614;2024-01-16T01:44:35;7.30;;;4.57;;
39190;SDS011;24916;51.676;6.614;2024-01-16T01:47:00;6.93;;;4.55;;
39190;SDS011;24916;51.676;6.614;2024-01-16T01:49:25;6.82;;;4.50;;
39190;SDS011;24916;51.676;6.614;2024-01-16T01:51:51;8.48;;;4.65;;
39190;SDS011;24916;51.676;6.614;2024-01-16T01:54:17;8.07;;;4.55;;
39190;SDS011;24916;51.676;6.614;2024-01-16T01:56:44;6.93;;;4.32;;
39190;SDS011;24916;51.676;6.614;2024-01-16T01:59:09;5.95;;;3.95;;
39190;SDS011;24916;51.676;6.614;2024-01-16T02:01:35;6.22;;;4.05;;
39190;SDS011;24916;51.676;6.614;2024-01-16T02:04:00;5.93;;;3.80;;
39190;SDS011;24916;51.676;6.614;2024-01-16T02:06:26;6.43;;;4.30;;
39190;SDS011;24916;51.676;6.614;2024-01-16T02:08:52;5.35;;;3.88;;
39190;SDS011;24916;51.676;6.614;2024-01-16T02:11:18;5.88;;;3.88;;
39190;SDS011;24916;51.676;6.614;2024-01-16T02:13:47;7.43;;;4.35;;
39190;SDS011;24916;51.676;6.614;2024-01-16T02:16:21;6.20;;;4.10;;
39190;SDS011;24916;51.676;6.614;2024-01-16T02:18:46;6.07;;;4.15;;
39190;SDS011;24916;51.676;6.614;2024-01-16T02:21:12;7.40;;;4.38;;
39190;SDS011;24916;51.676;6.614;2024-01-16T02:23:38;5.47;;;4.00;;
39190;SDS011;24916;51.676;6.614;2024-01-16T02:26:03;5.78;;;3.80;;
39190;SDS011;24916;51.676;6.614;2024-01-16T02:28:29;6.82;;;4.10;;
39190;SDS011;24916;51.676;6.614;2024-01-16T02:30:54;6.72;;;3.95;;
39190;SDS011;24916;51.676;6.614;2024-01-16T02:33:19;6.22;;;3.95;;
39190;SDS011;24916;51.676;6.614;2024-01-16T02:35:44;5.35;;;3.30;;
39190;SDS011;24916;51.676;6.614;2024-01-16T02:38:10;6.25;;;4.00;;
39190;SDS011;24916;51.676;6.614;2024-01-16T02:40:35;4.88;;;3.47;;
39190;SDS011;24916;51.676;6.614;2024-01-16T02:43:00;5.65;;;3.53;;
39190;SDS011;24916;51.676;6.614;2024-01-16T02:45:27;5.15;;;3.50;;
39190;SDS011;24916;51.676;6.614;2024-01-16T02:47:52;5.45;;;3.55;;
39190;SDS011;24916;51.676;6.614;2024-01-16T02:50:18;5.75;;;3.35;;
39190;SDS011;24916;51.676;6.614;2024-01-16T02:52:45;5.45;;;3.13;;
39190;SDS011;24916;51.676;6.614;2024-01-16T02:55:10;4.88;;;3.38;;
39190;SDS011;24916;51.676;6.614;2024-01-16T02:57:35;5.03;;;3.38;;
39190;SDS011;24916;51.676;6.614;2024-01-16T03:00:00;6.13;;;3.33;;
39190;SDS011;24916;51.676;6.614;2024-01-16T03:02:26;4.90;;;3.15;;
39190;SDS011;24916;51.676;6.614;2024-01-16T03:04:51;6.30;;;3.10;;
39190;SDS011;24916;51.676;6.614;2024-01-16T03:07:16;4.85;;;3.20;;
39190;SDS011;24916;51.676;6.614;2024-01-16T03:09:41;4.03;;;2.63;;
39190;SDS011;24916;51.676;6.614;2024-01-16T03:12:07;5.25;;;2.88;;
39190;SDS011;24916;51.676;6.614;2024-01-16T03:14:32;3.97;;;2.70;;
39190;SDS011;24916;51.676;6.614;2024-01-16T03:17:01;4.20;;;2.90;;
39190;SDS011;24916;51.676;6.614;2024-01-16T03:19:27;4.20;;;2.95;;
39190;SDS011;24916;51.676;6.614;2024-01-16T03:21:52;3.95;;;2.75;;
39190;SDS011;24916;51.676;6.614;2024-01-16T03:24:18;3.72;;;2.50;;
39190;SDS011;24916;51.676;6.614;2024-01-16T03:26:45;4.13;;;2.90;;
39190;SDS011;24916;51.676;6.614;2024-01-16T03:29:10;4.63;;;2.90;;
39190;SDS011;24916;51.676;6.614;2024-01-16T03:31:36;5.13;;;2.78;;
39190;SDS011;24916;51.676;6.614;2024-01-16T03:34:01;3.63;;;2.50;;
39190;SDS011;24916;51.676;6.614;2024-01-16T03:36:26;3.80;;;2.65;;
39190;SDS011;24916;51.676;6.614;2024-01-16T03:38:52;4.63;;;3.00;;
39190;SDS011;24916;51.676;6.614;2024-01-16T03:41:17;4.03;;;2.50;;
39190;SDS011;24916;51.676;6.614;2024-01-16T03:43:42;3.58;;;2.45;;
39190;SDS011;24916;51.676;6.614;2024-01-16T03:46:10;4.07;;;2.78;;
39190;SDS011;24916;51.676;6.614;2024-01-16T03:48:35;4.43;;;2.40;;
39190;SDS011;24916;51.676;6.614;2024-01-16T03:51:00;4.00;;;2.58;;
39190;SDS011;24916;51.676;6.614;2024-01-16T03:53:27;3.75;;;2.30;;
39190;SDS011;24916;51.676;6.614;2024-01-16T03:55:52;3.20;;;2.33;;
39190;SDS011;24916;51.676;6.614;2024-01-16T03:58:18;3.65;;;2.40;;
39190;SDS011;24916;51.676;6.614;2024-01-16T04:00:43;2.97;;;2.17;;
39190;SDS011;24916;51.676;6.614;2024-01-16T04:03:09;3.67;;;2.10;;
39190;SDS011;24916;51.676;6.614;2024-01-16T04:05:34;3.20;;;2.10;;
39190;SDS011;24916;51.676;6.614;2024-01-16T04:07:59;4.47;;;2.30;;
39190;SDS011;24916;51.676;6.614;2024-01-16T04:10:24;3.58;;;2.45;;
39190;SDS011;24916;51.676;6.614;2024-01-16T04:12:50;3.10;;;2.25;;
39190;SDS011;24916;51.676;6.614;2024-01-16T04:15:15;3.85;;;2.30;;
39190;SDS011;24916;51.676;6.614;2024-01-16T04:17:40;3.33;;;2.20;;
39190;SDS011;24916;51.676;6.614;2024-01-16T04:20:06;3.90;;;2.30;;
39190;SDS011;24916;51.676;6.614;2024-01-16T04:22:34;3.75;;;2.08;;
39190;SDS011;24916;51.676;6.614;2024-01-16T04:24:59;5.20;;;2.45;;
39190;SDS011;24916;51.676;6.614;2024-01-16T04:27:24;2.47;;;2.00;;
39190;SDS011;24916;51.676;6.614;2024-01-16T04:29:50;2.80;;;2.00;;
39190;SDS011;24916;51.676;6.614;2024-01-16T04:32:15;3.17;;;1.85;;
39190;SDS011;24916;51.676;6.614;2024-01-16T04:34:41;3.08;;;2.00;;
39190;SDS011;24916;51.676;6.614;2024-01-16T04:37:06;2.97;;;1.80;;
39190;SDS011;24916;51.676;6.614;2024-01-16T04:39:31;2.65;;;1.80;;
39190;SDS011;24916;51.676;6.614;2024-01-16T04:41:56;3.03;;;2.13;;
39190;SDS011;24916;51.676;6.614;2024-01-16T04:44:21;2.65;;;1.92;;
39190;SDS011;24916;51.676;6.614;2024-01-16T04:46:47;2.90;;;2.00;;
39190;SDS011;24916;51.676;6.614;2024-01-16T04:49:12;2.90;;;1.70;;
39190;SDS011;24916;51.676;6.614;2024-01-16T04:51:37;2.92;;;2.13;;
39190;SDS011;24916;51.676;6.614;2024-01-16T04:54:02;2.90;;;1.90;;
39190;SDS011;24916;51.676;6.614;2024-01-16T04:56:28;3.03;;;2.05;;
39190;SDS011;24916;51.676;6.614;2024-01-16T04:58:53;3.85;;;2.05;;
39190;SDS011;24916;51.676;6.614;2024-01-16T05:01:18;3.15;;;1.65;;
39190;SDS011;24916;51.676;6.614;2024-01-16T05:03:43;3.17;;;1.90;;
39190;SDS011;24916;51.676;6.614;2024-01-16T05:06:12;3.97;;;1.63;;
39190;SDS011;24916;51.676;6.614;2024-01-16T05:08:37;2.78;;;1.80;;
39190;SDS011;24916;51.676;6.614;2024-01-16T05:11:02;2.00;;;1.60;;
39190;SDS011;24916;51.676;6.614;2024-01-16T05:13:28;3.00;;;1.67;;
39190;SDS011;24916;51.676;6.614;2024-01-16T05:15:53;3.17;;;1.77;;
39190;SDS011;24916;51.676;6.614;2024-01-16T05:18:18;2.45;;;1.60;;
39190;SDS011;24916;51.676;6.614;2024-01-16T05:20:44;2.28;;;1.52;;
39190;SDS011;24916;51.676;6.614;2024-01-16T05:23:09;2.55;;;1.70;;
39190;SDS011;24916;51.676;6.614;2024-01-16T05:25:34;2.05;;;1.40;;
39190;SDS011;24916;51.676;6.614;2024-01-16T05:28:00;2.45;;;1.50;;
39190;SDS011;24916;51.676;6.614;2024-01-16T05:30:25;3.08;;;1.83;;
39190;SDS011;24916;51.676;6.614;2024-01-16T05:32:51;3.42;;;1.40;;
39190;SDS011;24916;51.676;6.614;2024-01-16T05:35:17;2.78;;;1.75;;
39190;SDS011;24916;51.676;6.614;2024-01-16T05:37:42;2.88;;;1.70;;
39190;SDS011;24916;51.676;6.614;2024-01-16T05:40:08;2.22;;;1.60;;
39190;SDS011;24916;51.676;6.614;2024-01-16T05:42:33;2.22;;;1.60;;
39190;SDS011;24916;51.676;6.614;2024-01-16T05:44:58;2.05;;;1.60;;
39190;SDS011;24916;51.676;6.614;2024-01-16T05:47:23;2.73;;;1.50;;
39190;SDS011;24916;51.676;6.614;2024-01-16T05:49:52;2.40;;;1.50;;
39190;SDS011;24916;51.676;6.614;2024-01-16T05:52:17;2.28;;;1.40;;
39190;SDS011;24916;51.676;6.614;2024-01-16T05:54:43;2.13;;;1.60;;
39190;SDS011;24916;51.676;6.614;2024-01-16T05:57:08;2.38;;;1.38;;
39190;SDS011;24916;51.676;6.614;2024-01-16T05:59:33;2.33;;;1.30;;
39190;SDS011;24916;51.676;6.614;2024-01-16T06:01:58;1.98;;;1.27;;
39190;SDS011;24916;51.676;6.614;2024-01-16T06:04:24;2.40;;;1.50;;
39190;SDS011;24916;51.676;6.614;2024-01-16T06:06:49;2.45;;;1.60;;
39190;SDS011;24916;51.676;6.614;2024-01-16T06:09:14;2.22;;;1.38;;
39190;SDS011;24916;51.676;6.614;2024-01-16T06:11:40;2.15;;;1.40;;
39190;SDS011;24916;51.676;6.614;2024-01-16T06:14:08;2.22;;;1.30;;
39190;SDS011;24916;51.676;6.614;2024-01-16T06:16:34;2.83;;;1.40;;
39190;SDS011;24916;51.676;6.614;2024-01-16T06:18:59;2.20;;;1.40;;
39190;SDS011;24916;51.676;6.614;2024-01-16T06:21:25;2.65;;;1.50;;
39190;SDS011;24916;51.676;6.614;2024-01-16T06:23:51;2.58;;;1.27;;
39190;SDS011;24916;51.676;6.614;2024-01-16T06:26:16;2.50;;;1.50;;
39190;SDS011;24916;51.676;6.614;2024-01-16T06:28:42;1.70;;;1.20;;
39190;SDS011;24916;51.676;6.614;2024-01-16T06:31:08;1.90;;;0.98;;
39190;SDS011;24916;51.676;6.614;2024-01-16T06:33:33;1.77;;;1.20;;
39190;SDS011;24916;51.676;6.614;2024-01-16T06:35:58;1.92;;;1.20;;
39190;SDS011;24916;51.676;6.614;2024-01-16T06:38:24;2.53;;;1.50;;
39190;SDS011;24916;51.676;6.614;2024-01-16T06:40:49;1.98;;;1.30;;
39190;SDS011;24916;51.676;6.614;2024-01-16T06:43:14;2.35;;;1.25;;
39190;SDS011;24916;51.676;6.614;2024-01-16T06:45:40;3.95;;;1.48;;
39190;SDS011;24916;51.676;6.614;2024-01-16T06:48:07;2.22;;;1.23;;
39190;SDS011;24916;51.676;6.614;2024-01-16T06:50:32;1.85;;;1.20;;
39190;SDS011;24916;51.676;6.614;2024-01-16T06:52:57;2.78;;;1.48;;
39190;SDS011;24916;51.676;6.614;2024-01-16T06:55:23;2.13;;;1.30;;
39190;SDS011;24916;51.676;6.614;2024-01-16T06:57:49;1.95;;;1.10;;
39190;SDS011;24916;51.676;6.614;2024-01-16T07:00:14;2.20;;;1.33;;
39190;SDS011;24916;51.676;6.614;2024-01-16T07:02:39;2.33;;;1.30;;
39190;SDS011;24916;51.676;6.614;2024-01-16T07:05:07;2.72;;;1.35;;
39190;SDS011;24916;51.676;6.614;2024-01-16T07:07:32;2.10;;;1.27;;
39190;SDS011;24916;51.676;6.614;2024-01-16T07:09:57;3.10;;;1.60;;
39190;SDS011;24916;51.676;6.614;2024-01-16T07:12:22;1.70;;;1.17;;
39190;SDS011;24916;51.676;6.614;2024-01-16T07:14:48;2.28;;;1.10;;
39190;SDS011;24916;51.676;6.614;2024-01-16T07:17:13;2.70;;;1.30;;
39190;SDS011;24916;51.676;6.614;2024-01-16T07:19:38;3.00;;;1.30;;
39190;SDS011;24916;51.676;6.614;2024-01-16T07:22:04;4.72;;;1.30;;
39190;SDS011;24916;51.676;6.614;2024-01-16T07:24:29;1.88;;;1.27;;
39190;SDS011;24916;51.676;6.614;2024-01-16T07:26:55;1.90;;;1.17;;
39190;SDS011;24916;51.676;6.614;2024-01-16T07:29:20;1.70;;;1.20;;
39190;SDS011;24916;51.676;6.614;2024-01-16T07:31:46;1.83;;;1.20;;
39190;SDS011;24916;51.676;6.614;2024-01-16T07:34:11;1.98;;;1.05;;
39190;SDS011;24916;51.676;6.614;2024-01-16T07:36:36;2.85;;;1.15;;
39190;SDS011;24916;51.676;6.614;2024-01-16T07:39:02;1.77;;;1.15;;
39190;SDS011;24916;51.676;6.614;2024-01-16T07:41:27;2.05;;;1.30;;
39190;SDS011;24916;51.676;6.614;2024-01-16T07:43:52;1.70;;;1.10;;
39190;SDS011;24916;51.676;6.614;2024-01-16T07:46:17;1.77;;;1.27;;
39190;SDS011;24916;51.676;6.614;2024-01-16T07:48:42;2.55;;;1.35;;
39190;SDS011;24916;51.676;6.614;2024-01-16T07:51:08;1.45;;;1.00;;
39190;SDS011;24916;51.676;6.614;2024-01-16T07:53:33;1.77;;;1.17;;
39190;SDS011;24916;51.676;6.614;2024-01-16T07:55:58;3.00;;;1.20;;
39190;SDS011;24916;51.676;6.614;2024-01-16T07:58:23;1.88;;;1.20;;
39190;SDS011;24916;51.676;6.614;2024-01-16T08:00:49;3.20;;;1.63;;
39190;SDS011;24916;51.676;6.614;2024-01-16T08:03:14;4.53;;;2.35;;
39190;SDS011;24916;51.676;6.614;2024-01-16T08:05:39;7.20;;;2.88;;
39190;SDS011;24916;51.676;6.614;2024-01-16T08:08:05;7.90;;;3.67;;
39190;SDS011;24916;51.676;6.614;2024-01-16T08:10:30;10.27;;;3.95;;
39190;SDS011;24916;51.676;6.614;2024-01-16T08:12:56;8.50;;;4.03;;
39190;SDS011;24916;51.676;6.614;2024-01-16T08:15:21;8.10;;;3.55;;
39190;SDS011;24916;51.676;6.614;2024-01-16T08:17:46;7.13;;;3.53;;
39190;SDS011;24916;51.676;6.614;2024-01-16T08:20:12;9.57;;;3.63;;
39190;SDS011;24916;51.676;6.614;2024-01-16T08:22:37;7.70;;;3.50;;
39190;SDS011;24916;51.676;6.614;2024-01-16T08:25:03;7.18;;;3.42;;
39190;SDS011;24916;51.676;6.614;2024-01-16T08:27:30;8.98;;;3.25;;
39190;SDS011;24916;51.676;6.614;2024-01-16T08:29:55;9.23;;;3.40;;
39190;SDS011;24916;51.676;6.614;2024-01-16T08:32:21;7.05;;;3.08;;
39190;SDS011;24916;51.676;6.614;2024-01-16T08:34:46;8.35;;;3.03;;
39190;SDS011;24916;51.676;6.614;2024-01-16T08:37:11;7.18;;;3.15;;
39190;SDS011;24916;51.676;6.614;2024-01-16T08:39:36;8.20;;;3.17;;
39190;SDS011;24916;51.676;6.614;2024-01-16T08:42:01;7.37;;;3.20;;
39190;SDS011;24916;51.676;6.614;2024-01-16T08:44:28;7.07;;;2.78;;
39190;SDS011;24916;51.676;6.614;2024-01-16T08:46:53;6.50;;;2.80;;
39190;SDS011;24916;51.676;6.614;2024-01-16T08:49:18;8.88;;;2.90;;
39190;SDS011;24916;51.676;6.614;2024-01-16T08:51:43;5.90;;;2.83;;
39190;SDS011;24916;51.676;6.614;2024-01-16T08:54:09;5.35;;;2.50;;
39190;SDS011;24916;51.676;6.614;2024-01-16T08:56:34;6.18;;;2.95;;
39190;SDS011;24916;51.676;6.614;2024-01-16T08:58:59;6.05;;;2.60;;
39190;SDS011;24916;51.676;6.614;2024-01-16T09:01:25;4.50;;;2.22;;
39190;SDS011;24916;51.676;6.614;2024-01-16T09:03:50;5.65;;;2.63;;
39190;SDS011;24916;51.676;6.614;2024-01-16T09:06:16;5.28;;;2.38;;
39190;SDS011;24916;51.676;6.614;2024-01-16T09:08:41;5.07;;;2.25;;
39190;SDS011;24916;51.676;6.614;2024-01-16T09:11:07;6.22;;;2.38;;
39190;SDS011;24916;51.676;6.614;2024-01-16T09:13:33;4.68;;;2.08;;
39190;SDS011;24916;51.676;6.614;2024-01-16T09:15:58;4.53;;;2.10;;
39190;SDS011;24916;51.676;6.614;2024-01-16T09:18:24;5.38;;;2.28;;
39190;SDS011;24916;51.676;6.614;2024-01-16T09:20:49;4.30;;;1.80;;
39190;SDS011;24916;51.676;6.614;2024-01-16T09:23:14;4.78;;;2.17;;
39190;SDS011;24916;51.676;6.614;2024-01-16T09:25:39;4.75;;;2.20;;
39190;SDS011;24916;51.676;6.614;2024-01-16T09:28:05;4.80;;;2.00;;
39190;SDS011;24916;51.676;6.614;2024-01-16T09:30:31;3.53;;;2.08;;
39190;SDS011;24916;51.676;6.614;2024-01-16T09:32:58;5.75;;;2.20;;
39190;SDS011;24916;51.676;6.614;2024-01-16T09:35:23;3.10;;;1.70;;
39190;SDS011;24916;51.676;6.614;2024-01-16T09:37:49;5.13;;;2.20;;
39190;SDS011;24916;51.676;6.614;2024-01-16T09:40:14;4.32;;;2.22;;
39190;SDS011;24916;51.676;6.614;2024-01-16T09:42:40;5.20;;;1.90;;
39190;SDS011;24916;51.676;6.614;2024-01-16T09:45:06;4.18;;;1.85;;
39190;SDS011;24916;51.676;6.614;2024-01-16T09:47:31;4.03;;;1.98;;
39190;SDS011;24916;51.676;6.614;2024-01-16T09:49:57;3.78;;;1.83;;
39190;SDS011;24916;51.676;6.614;2024-01-16T09:52:24;2.70;;;1.75;;
39190;SDS011;24916;51.676;6.614;2024-01-16T09:54:49;4.55;;;1.90;;
39190;SDS011;24916;51.676;6.614;2024-01-16T09:57:14;3.00;;;1.77;;
39190;SDS011;24916;51.676;6.614;2024-01-16T09:59:40;3.30;;;1.65;;
39190;SDS011;24916;51.676;6.614;2024-01-16T10:02:05;4.38;;;1.88;;
39190;SDS011;24916;51.676;6.614;2024-01-16T10:04:32;3.38;;;1.67;;
39190;SDS011;24916;51.676;6.614;2024-01-16T10:06:58;3.30;;;1.73;;
39190;SDS011;24916;51.676;6.614;2024-01-16T10:09:23;4.10;;;1.67;;
39190;SDS011;24916;51.676;6.614;2024-01-16T10:11:49;4.05;;;1.83;;
39190;SDS011;24916;51.676;6.614;2024-01-16T10:14:15;4.20;;;1.85;;
39190;SDS011;24916;51.676;6.614;2024-01-16T10:16:59;4.25;;;1.83;;
39190;SDS011;24916;51.676;6.614;2024-01-16T10:19:28;3.65;;;2.00;;
39190;SDS011;24916;51.676;6.614;2024-01-16T10:22:00;4.90;;;2.13;;
39190;SDS011;24916;51.676;6.614;2024-01-16T10:24:26;2.75;;;1.48;;
39190;SDS011;24916;51.676;6.614;2024-01-16T10:26:57;3.38;;;1.70;;
39190;SDS011;24916;51.676;6.614;2024-01-16T10:29:23;4.55;;;1.55;;
39190;SDS011;24916;51.676;6.614;2024-01-16T10:31:48;3.15;;;1.60;;
39190;SDS011;24916;51.676;6.614;2024-01-16T10:34:20;2.78;;;1.50;;
39190;SDS011;24916;51.676;6.614;2024-01-16T10:36:52;3.75;;;1.70;;
39190;SDS011;24916;51.676;6.614;2024-01-16T10:39:23;2.92;;;1.20;;
39190;SDS011;24916;51.676;6.614;2024-01-16T10:41:54;2.83;;;1.60;;
39190;SDS011;24916;51.676;6.614;2024-01-16T10:44:20;2.47;;;1.42;;
39190;SDS011;24916;51.676;6.614;2024-01-16T10:46:46;2.85;;;1.45;;
39190;SDS011;24916;51.676;6.614;2024-01-16T10:49:11;2.75;;;1.48;;
39190;SDS011;24916;51.676;6.614;2024-01-16T10:51:37;2.30;;;1.40;;
39190;SDS011;24916;51.676;6.614;2024-01-16T10:54:04;3.20;;;1.60;;
39190;SDS011;24916;51.676;6.614;2024-01-16T10:56:36;2.47;;;1.55;;
39190;SDS011;24916;51.676;6.614;2024-01-16T11:01:40;2.45;;;1.42;;
39190;SDS011;24916;51.676;6.614;2024-01-16T11:04:08;2.17;;;1.45;;
39190;SDS011;24916;51.676;6.614;2024-01-16T11:06:34;3.90;;;1.35;;
39190;SDS011;24916;51.676;6.614;2024-01-16T11:09:09;2.83;;;1.58;;
39190;SDS011;24916;51.676;6.614;2024-01-16T11:11:34;2.78;;;1.52;;
39190;SDS011;24916;51.676;6.614;2024-01-16T11:14:01;3.05;;;1.67;;
39190;SDS011;24916;51.676;6.614;2024-01-16T11:16:28;3.03;;;1.45;;
39190;SDS011;24916;51.676;6.614;2024-01-16T11:18:53;2.58;;;1.70;;
39190;SDS011;24916;51.676;6.614;2024-01-16T11:21:19;4.00;;;1.50;;
39190;SDS011;24916;51.676;6.614;2024-01-16T11:23:45;2.88;;;1.52;;
39190;SDS011;24916;51.676;6.614;2024-01-16T11:28:50;3.60;;;1.83;;
39190;SDS011;24916;51.676;6.614;2024-01-16T11:31:36;4.13;;;1.73;;
39190;SDS011;24916;51.676;6.614;2024-01-16T11:34:01;2.63;;;1.48;;
39190;SDS011;24916;51.676;6.614;2024-01-16T11:39:09;4.45;;;1.90;;
39190;SDS011;24916;51.676;6.614;2024-01-16T11:44:15;5.38;;;1.88;;
39190;SDS011;24916;51.676;6.614;2024-01-16T11:47:00;4.47;;;2.00;;
39190;SDS011;24916;51.676;6.614;2024-01-16T11:49:25;3.53;;;2.00;;
39190;SDS011;24916;51.676;6.614;2024-01-16T11:51:50;3.25;;;1.75;;
39190;SDS011;24916;51.676;6.614;2024-01-16T11:54:17;4.85;;;1.83;;
39190;SDS011;24916;51.676;6.614;2024-01-16T12:02:14;4.55;;;2.10;;
39190;SDS011;24916;51.676;6.614;2024-01-16T12:04:43;4.18;;;1.85;;
39190;SDS011;24916;51.676;6.614;2024-01-16T12:07:16;2.78;;;1.65;;
39190;SDS011;24916;51.676;6.614;2024-01-16T12:09:41;2.95;;;1.65;;
39190;SDS011;24916;51.676;6.614;2024-01-16T12:12:07;4.75;;;2.10;;
39190;SDS011;24916;51.676;6.614;2024-01-16T12:14:32;3.17;;;1.65;;
39190;SDS011;24916;51.676;6.614;2024-01-16T12:17:13;4.43;;;2.10;;
39190;SDS011;24916;51.676;6.614;2024-01-16T12:19:39;3.90;;;2.17;;
39190;SDS011;24916;51.676;6.614;2024-01-16T12:22:05;4.70;;;2.25;;
39190;SDS011;24916;51.676;6.614;2024-01-16T12:24:30;3.72;;;2.03;;
39190;SDS011;24916;51.676;6.614;2024-01-16T12:26:58;3.13;;;1.90;;
39190;SDS011;24916;51.676;6.614;2024-01-16T12:29:23;4.30;;;2.05;;
39190;SDS011;24916;51.676;6.614;2024-01-16T12:31:49;4.90;;;1.80;;
39190;SDS011;24916;51.676;6.614;2024-01-16T12:34:14;3.25;;;1.83;;
39190;SDS011;24916;51.676;6.614;2024-01-16T12:36:39;5.75;;;2.25;;
39190;SDS011;24916;51.676;6.614;2024-01-16T12:39:04;3.47;;;1.90;;
39190;SDS011;24916;51.676;6.614;2024-01-16T12:41:42;4.13;;;2.10;;
39190;SDS011;24916;51.676;6.614;2024-01-16T12:44:09;4.00;;;1.90;;
39190;SDS011;24916;51.676;6.614;2024-01-16T12:46:34;3.33;;;2.05;;
39190;SDS011;24916;51.676;6.614;2024-01-16T12:49:00;5.72;;;2.05;;
39190;SDS011;24916;51.676;6.614;2024-01-16T12:51:26;3.78;;;2.08;;
39190;SDS011;24916;51.676;6.614;2024-01-16T12:53:51;3.08;;;1.90;;
39190;SDS011;24916;51.676;6.614;2024-01-16T12:56:19;3.33;;;2.00;;
39190;SDS011;24916;51.676;6.614;2024-01-16T12:58:45;4.65;;;2.20;;
39190;SDS011;24916;51.676;6.614;2024-01-16T13:01:21;4.57;;;1.85;;
39190;SDS011;24916;51.676;6.614;2024-01-16T13:03:46;2.90;;;1.60;;
39190;SDS011;24916;51.676;6.614;2024-01-16T13:06:16;4.88;;;1.90;;
39190;SDS011;24916;51.676;6.614;2024-01-16T13:08:42;2.80;;;1.75;;
39190;SDS011;24916;51.676;6.614;2024-01-16T13:11:09;2.92;;;1.77;;
39190;SDS011;24916;51.676;6.614;2024-01-16T13:13:34;4.45;;;2.10;;
39190;SDS011;24916;51.676;6.614;2024-01-16T13:16:01;3.90;;;1.70;;
39190;SDS011;24916;51.676;6.614;2024-01-16T13:18:27;4.85;;;2.22;;
39190;SDS011;24916;51.676;6.614;2024-01-16T13:20:53;5.63;;;1.83;;
39190;SDS011;24916;51.676;6.614;2024-01-16T13:23:18;3.45;;;1.73;;
39190;SDS011;24916;51.676;6.614;2024-01-16T13:25:45;2.92;;;1.90;;
39190;SDS011;24916;51.676;6.614;2024-01-16T13:28:14;3.42;;;1.70;;
39190;SDS011;24916;51.676;6.614;2024-01-16T13:30:39;3.88;;;1.65;;
39190;SDS011;24916;51.676;6.614;2024-01-16T13:33:05;2.80;;;1.58;;
39190;SDS011;24916;51.676;6.614;2024-01-16T13:35:31;4.30;;;1.90;;
39190;SDS011;24916;51.676;6.614;2024-01-16T13:37:56;2.63;;;1.50;;
39190;SDS011;24916;51.676;6.614;2024-01-16T13:40:21;3.75;;;1.98;;
39190;SDS011;24916;51.676;6.614;2024-01-16T13:42:47;2.88;;;2.03;;
39190;SDS011;24916;51.676;6.614;2024-01-16T13:45:12;3.30;;;1.67;;
39190;SDS011;24916;51.676;6.614;2024-01-16T13:47:42;4.10;;;1.90;;
39190;SDS011;24916;51.676;6.614;2024-01-16T13:50:07;2.78;;;1.52;;
39190;SDS011;24916;51.676;6.614;2024-01-16T13:52:33;4.53;;;1.73;;
39190;SDS011;24916;51.676;6.614;2024-01-16T13:54:58;4.15;;;1.83;;
39190;SDS011;24916;51.676;6.614;2024-01-16T13:57:24;3.17;;;1.65;;
39190;SDS011;24916;51.676;6.614;2024-01-16T13:59:49;3.20;;;1.90;;
39190;SDS011;24916;51.676;6.614;2024-01-16T14:02:16;2.80;;;1.60;;
39190;SDS011;24916;51.676;6.614;2024-01-16T14:04:41;3.22;;;1.98;;
39190;SDS011;24916;51.676;6.614;2024-01-16T14:07:06;4.68;;;1.98;;
39190;SDS011;24916;51.676;6.614;2024-01-16T14:09:33;3.65;;;2.10;;
39190;SDS011;24916;51.676;6.614;2024-01-16T14:11:58;3.15;;;1.80;;
39190;SDS011;24916;51.676;6.614;2024-01-16T14:14:24;5.50;;;3.03;;
39190;SDS011;24916;51.676;6.614;2024-01-16T14:16:49;11.90;;;3.58;;
39190;SDS011;24916;51.676;6.614;2024-01-16T14:19:15;7.35;;;3.67;;
39190;SDS011;24916;51.676;6.614;2024-01-16T14:21:40;7.78;;;4.07;;
39190;SDS011;24916;51.676;6.614;2024-01-16T14:24:06;8.02;;;4.40;;
39190;SDS011;24916;51.676;6.614;2024-01-16T14:26:32;7.35;;;4.05;;
39190;SDS011;24916;51.676;6.614;2024-01-16T14:29:03;7.22;;;3.97;;
39190;SDS011;24916;51.676;6.614;2024-01-16T14:31:28;8.80;;;4.30;;
39190;SDS011;24916;51.676;6.614;2024-01-16T14:33:54;9.00;;;4.50;;
39190;SDS011;24916;51.676;6.614;2024-01-16T14:36:19;8.68;;;4.60;;
39190;SDS011;24916;51.676;6.614;2024-01-16T14:38:44;8.45;;;4.65;;
39190;SDS011;24916;51.676;6.614;2024-01-16T14:41:10;7.43;;;4.30;;
39190;SDS011;24916;51.676;6.614;2024-01-16T14:43:37;8.93;;;4.15;;
39190;SDS011;24916;51.676;6.614;2024-01-16T14:46:02;8.73;;;4.70;;
39190;SDS011;24916;51.676;6.614;2024-01-16T14:48:28;7.25;;;4.55;;
39190;SDS011;24916;51.676;6.614;2024-01-16T14:50:53;6.93;;;3.92;;
39190;SDS011;24916;51.676;6.614;2024-01-16T14:53:20;6.55;;;3.80;;
39190;SDS011;24916;51.676;6.614;2024-01-16T14:55:46;7.28;;;3.30;;